Time;durP1;ratioP1;P1;durP2;ratioP2;P2;SDS_P1;SDS_P2;PMS_P1;PMS_P2;Temp;Humidity;BMP_temperature;BMP_pressure;BME280_temperature;BME280_humidity;BME280_pressure;Samples;Min_cycle;Max_cycle;Signal;HPM_P1;HPM_P2
2022/06/05 00:01:28;;;;;;;7.80;7.00;;;17.90;67.40;;;20.60;50.98;102102.19;5131769;27;20602;-57
2022/06/05 00:04:08;;;;;;;10.00;6.57;;;17.90;67.50;;;20.59;51.10;102099.72;5127477;28;20279;-61
2022/06/05 00:06:48;;;;;;;8.37;6.80;;;17.90;67.50;;;20.60;51.03;102090.66;5081224;28;20229;-58
2022/06/05 00:09:30;;;;;;;7.53;6.93;;;17.90;67.60;;;20.59;51.39;102094.38;5030065;28;20277;-58
2022/06/05 00:12:06;;;;;;;10.20;6.63;;;17.90;67.50;;;20.59;51.47;102097.03;4962121;28;20202;-59
2022/06/05 00:14:37;;;;;;;7.70;6.30;;;17.90;67.40;;;20.59;51.05;102092.50;4832215;29;20218;-61
2022/06/05 00:18:41;;;;;;;8.37;6.20;;;17.90;67.50;;;20.42;51.75;102079.78;4596303;30;20248;-60
2022/06/05 00:21:07;;;;;;;7.53;6.83;;;17.90;67.60;;;20.45;51.50;102079.34;4515384;30;20389;-60
2022/06/05 00:23:47;;;;;;;11.10;7.33;;;17.80;67.20;;;20.46;51.56;102070.31;5152994;27;20615;-57
2022/06/05 00:26:29;;;;;;;8.77;7.00;;;17.80;67.50;;;20.42;51.20;102063.72;5121116;27;20272;-59
2022/06/05 00:29:15;;;;;;;9.53;7.20;;;17.80;67.70;;;20.41;51.56;102067.41;5133890;27;20198;-61
2022/06/05 00:31:52;;;;;;;8.03;6.90;;;17.80;68.40;;;20.41;51.16;102072.78;5126299;28;20202;-61
2022/06/05 00:34:20;;;;;;;7.47;6.80;;;17.70;67.70;;;20.43;51.40;102068.03;5079371;28;20200;-61
2022/06/05 00:37:11;;;;;;;7.80;7.10;;;17.70;67.60;;;20.36;51.35;102060.03;5047098;28;20240;-60
2022/06/05 00:39:48;;;;;;;9.73;6.97;;;17.70;67.70;;;20.36;51.69;102065.38;4824805;29;20643;-61
2022/06/05 00:42:16;;;;;;;11.30;7.50;;;17.70;67.80;;;20.37;51.41;102050.97;4791272;29;20278;-60
2022/06/05 00:44:54;;;;;;;8.17;7.00;;;17.70;67.80;;;20.36;51.41;102060.03;4742106;30;20286;-59
2022/06/05 00:47:36;;;;;;;8.77;7.80;;;17.70;67.60;;;20.32;51.68;102042.75;5171381;27;20702;-61
2022/06/05 00:50:11;;;;;;;8.83;7.63;;;17.60;67.70;;;20.29;51.16;102042.31;5131401;27;20274;-60
2022/06/05 00:52:44;;;;;;;7.43;6.73;;;17.60;67.80;;;20.27;51.31;102041.72;5129299;27;20195;-60
2022/06/05 00:55:16;;;;;;;10.27;7.93;;;17.50;67.90;;;20.22;51.68;102031.63;5120501;27;20306;-59
2022/06/05 00:57:43;;;;;;;8.03;7.30;;;17.50;68.00;;;20.20;51.47;102033.66;5107298;28;20647;-61
2022/06/05 01:00:15;;;;;;;8.93;7.57;;;17.50;68.20;;;20.19;51.58;102027.50;5144124;27;20243;-60
2022/06/05 01:02:48;;;;;;;8.73;7.93;;;17.50;68.10;;;20.15;51.85;102023.59;5144348;27;20591;-61
2022/06/05 01:07:54;;;;;;;8.63;7.83;;;17.40;68.30;;;20.11;51.84;102030.34;5172276;27;20610;-60
2022/06/05 01:10:26;;;;;;;8.90;8.00;;;17.40;68.50;;;20.07;51.96;102023.78;5131751;27;20198;-56
2022/06/05 01:13:04;;;;;;;8.60;7.77;;;17.30;68.60;;;20.02;52.12;102010.19;5120454;28;20191;-60
2022/06/05 01:15:43;;;;;;;9.63;8.13;;;17.30;68.70;;;19.98;52.17;102003.63;5100186;28;20229;-60
2022/06/05 01:18:26;;;;;;;8.70;7.67;;;17.30;68.60;;;19.91;51.98;101997.47;5046401;28;20314;-60
2022/06/05 01:21:24;;;;;;;9.90;8.90;;;17.30;68.60;;;19.87;52.05;102011.44;4949712;28;20228;-60
2022/06/05 01:24:17;;;;;;;8.40;7.60;;;17.20;69.50;;;19.81;52.21;102015.75;4783488;29;20220;-60
2022/06/05 01:27:00;;;;;;;8.83;7.93;;;17.20;68.70;;;19.77;52.44;102006.50;4471963;31;20263;-60
2022/06/05 01:29:42;;;;;;;8.40;7.53;;;17.10;68.80;;;19.72;52.20;102006.28;5166116;27;20833;-59
2022/06/05 01:32:15;;;;;;;8.60;7.70;;;17.10;69.00;;;19.70;52.46;102005.66;5115033;27;20225;-58
2022/06/05 01:34:48;;;;;;;9.37;8.43;;;17.00;69.10;;;19.69;52.72;102004.00;5150676;27;20281;-59
2022/06/05 01:37:21;;;;;;;8.47;7.67;;;17.00;69.30;;;19.69;52.59;102004.00;5150479;27;20618;-55
2022/06/05 01:39:54;;;;;;;9.43;8.57;;;17.00;69.30;;;19.70;52.58;102003.00;5097149;28;20197;-57
2022/06/05 01:42:26;;;;;;;11.13;8.87;;;17.00;69.10;;;19.70;52.38;102000.31;5015681;28;20516;-56
2022/06/05 01:44:59;;;;;;;10.30;9.17;;;17.00;69.10;;;19.69;52.19;102004.00;4905358;29;20665;-64
2022/06/05 01:50:41;;;;;;;9.43;8.47;;;17.00;68.90;;;19.62;52.45;101997.81;5172457;27;20627;-60
2022/06/05 01:53:29;;;;;;;9.23;8.30;;;17.00;69.70;;;19.57;52.40;101993.09;5133685;27;20214;-60
2022/06/05 01:56:02;;;;;;;11.80;10.60;;;17.00;68.90;;;19.61;52.45;101993.53;5121730;28;20552;-59
2022/06/05 01:58:36;;;;;;;9.27;8.43;;;16.90;69.00;;;19.61;52.15;101988.19;5076426;28;20201;-58
2022/06/05 02:01:08;;;;;;;9.60;8.70;;;16.90;68.70;;;19.60;52.25;101991.88;5051479;28;20272;-60
2022/06/05 02:03:41;;;;;;;9.70;8.30;;;16.90;68.50;;;19.58;52.31;101985.91;4997203;28;20217;-60
2022/06/05 02:06:15;;;;;;;8.87;7.97;;;16.90;68.70;;;19.57;52.46;101984.25;4893516;29;26067;-59
2022/06/05 02:11:59;;;;;;;10.13;8.10;;;16.80;69.50;;;19.54;52.27;101973.97;5172563;27;20642;-57
2022/06/05 02:14:26;;;;;;;9.50;7.93;;;16.90;68.60;;;19.52;52.52;101981.34;5129737;27;20226;-58
2022/06/05 02:16:53;;;;;;;10.23;7.83;;;16.80;68.50;;;19.51;51.93;101974.38;5129724;28;20218;-59
2022/06/05 02:19:22;;;;;;;9.43;7.60;;;16.80;68.40;;;19.49;52.36;101966.56;5140835;27;20195;-59
2022/06/05 02:21:52;;;;;;;8.97;8.07;;;16.80;69.00;;;19.51;52.26;101969.03;5123964;27;20637;-56
2022/06/05 02:24:19;;;;;;;9.27;8.37;;;16.80;68.80;;;19.51;52.29;101969.88;5060769;28;20696;-59
2022/06/05 02:26:46;;;;;;;9.30;8.30;;;16.80;68.60;;;19.50;52.18;101970.88;5060030;28;20197;-60
2022/06/05 02:31:03;;;;;;;8.83;7.87;;;16.80;68.40;;;19.31;52.24;101973.47;4962980;28;20288;-59
2022/06/05 02:36:22;;;;;;;8.47;7.67;;;16.80;68.30;;;19.29;52.08;101981.69;5156081;27;21126;-60
2022/06/05 02:39:05;;;;;;;8.27;7.33;;;16.70;68.20;;;19.26;52.26;101970.56;5090062;28;20283;-58
2022/06/05 02:41:42;;;;;;;8.13;7.43;;;16.60;68.40;;;19.24;52.26;101962.78;5057765;28;20246;-59
2022/06/05 02:44:30;;;;;;;8.77;7.60;;;16.60;68.40;;;19.24;52.20;101960.13;4992089;28;20195;-58
2022/06/05 02:47:23;;;;;;;8.20;7.50;;;16.60;68.40;;;19.18;52.31;101962.78;4924313;29;20661;-60
2022/06/05 02:49:59;;;;;;;8.50;7.73;;;16.50;68.40;;;19.20;51.95;101955.38;4881893;29;20203;-60
2022/06/05 02:52:31;;;;;;;8.17;7.37;;;16.50;68.30;;;19.18;52.07;101963.59;4783473;29;20215;-58
2022/06/05 02:54:58;;;;;;;8.77;7.73;;;16.50;68.40;;;19.19;51.83;101969.75;4670612;30;20239;-60
2022/06/05 02:57:24;;;;;;;8.87;8.07;;;16.50;68.30;;;19.19;52.26;101959.06;4562896;31;20234;-58
2022/06/05 03:00:10;;;;;;;10.87;8.03;;;16.50;68.60;;;19.18;51.99;101952.91;5172974;27;20586;-58
2022/06/05 03:05:23;;;;;;;7.40;6.77;;;16.50;68.40;;;19.17;51.93;101961.09;5119706;28;20238;-59
2022/06/05 03:07:50;;;;;;;7.83;7.23;;;16.40;68.00;;;19.14;51.76;101953.50;5101124;28;20305;-58
2022/06/05 03:10:18;;;;;;;8.10;7.40;;;16.40;68.10;;;19.12;51.94;101944.88;5056019;28;20200;-59
2022/06/05 03:12:45;;;;;;;9.30;7.73;;;16.40;68.20;;;19.12;52.02;101955.53;5096181;28;20219;-58
2022/06/05 03:15:15;;;;;;;8.90;8.00;;;16.40;68.20;;;19.11;52.06;101956.59;5092332;28;20216;-58
2022/06/05 03:20:30;;;;;;;8.27;7.50;;;16.40;68.30;;;19.12;51.82;101958.22;5171661;27;20637;-60
2022/06/05 03:22:57;;;;;;;7.73;7.03;;;16.40;68.30;;;19.12;51.71;101955.53;5150872;27;20517;-60
2022/06/05 03:25:26;;;;;;;7.53;6.83;;;16.40;68.80;;;19.12;51.90;101960.88;5144589;27;20624;-60
2022/06/05 03:27:53;;;;;;;7.90;7.20;;;16.40;68.20;;;19.14;51.91;101959.66;5141155;27;20198;-60
2022/06/05 03:30:20;;;;;;;7.73;6.67;;;16.40;68.90;;;19.16;51.69;101959.47;5128771;27;20204;-60
2022/06/05 03:32:47;;;;;;;7.73;7.03;;;16.40;67.80;;;19.16;51.69;101959.47;5122752;28;20248;-60
2022/06/05 03:35:15;;;;;;;8.50;7.70;;;16.40;67.80;;;19.16;51.39;101944.25;5051867;28;20219;-57
2022/06/05 03:40:25;;;;;;;7.20;6.57;;;16.40;67.70;;;19.14;51.31;101958.84;5160544;27;20615;-57
2022/06/05 03:42:52;;;;;;;8.77;7.93;;;16.40;67.40;;;19.13;51.44;101949.19;5133587;27;20199;-63
2022/06/05 03:45:19;;;;;;;7.60;6.80;;;16.40;67.60;;;19.13;51.34;101946.53;5116815;28;20311;-60
2022/06/05 03:47:46;;;;;;;8.23;7.47;;;16.40;67.60;;;19.13;51.22;101939.34;5127828;28;20199;-59
2022/06/05 03:50:16;;;;;;;7.60;6.90;;;16.40;67.40;;;19.15;51.32;101936.47;5115838;28;20549;-60
2022/06/05 03:52:43;;;;;;;8.00;7.30;;;16.40;67.60;;;19.18;51.27;101930.72;5062623;28;20196;-60
2022/06/05 03:55:17;;;;;;;8.00;7.20;;;16.40;67.10;;;19.17;51.34;101929.06;4999936;28;20295;-59
2022/06/05 04:01:25;;;;;;;7.53;6.83;;;16.50;67.30;;;19.16;51.12;101922.91;5164880;27;21081;-60
2022/06/05 04:03:54;;;;;;;7.67;6.87;;;16.40;67.00;;;19.19;51.12;101916.34;5113228;28;20199;-60
2022/06/05 04:06:29;;;;;;;7.90;7.10;;;16.40;67.00;;;19.20;50.92;101912.66;5127090;28;20215;-59
2022/06/05 04:08:57;;;;;;;8.73;7.43;;;16.40;67.10;;;19.21;50.99;101904.44;5072048;28;20198;-59
2022/06/05 04:11:29;;;;;;;7.17;6.57;;;16.40;67.20;;;19.23;50.96;101901.59;5034627;28;20195;-57
2022/06/05 04:13:56;;;;;;;7.23;6.53;;;16.40;67.10;;;19.25;51.09;101891.53;5052068;28;20197;-65
2022/06/05 04:16:27;;;;;;;7.47;6.57;;;16.50;67.20;;;19.28;51.01;101883.13;5044331;28;20241;-61
2022/06/05 04:22:49;;;;;;;7.50;6.80;;;16.50;67.10;;;19.30;50.71;101875.72;5171749;27;20622;-59
2022/06/05 04:25:16;;;;;;;8.13;6.73;;;16.60;66.60;;;19.33;50.65;101877.97;5141412;27;20297;-61
2022/06/05 04:27:43;;;;;;;7.60;6.90;;;16.60;66.60;;;19.37;50.60;101873.91;5128899;28;20671;-58
2022/06/05 04:30:11;;;;;;;6.83;6.23;;;16.60;66.50;;;19.39;50.71;101874.53;5145539;27;20201;-59
2022/06/05 04:32:38;;;;;;;7.23;6.53;;;16.60;66.60;;;19.43;50.53;101865.06;5131813;27;20200;-61
2022/06/05 04:35:06;;;;;;;7.57;6.87;;;16.70;66.50;;;19.46;50.39;101878.84;5128919;27;20219;-60
2022/06/05 04:37:33;;;;;;;6.70;6.10;;;16.70;66.30;;;19.47;50.26;101875.13;5029653;28;20207;-61
2022/06/05 04:40:04;;;;;;;7.67;6.90;;;16.70;66.40;;;19.49;50.28;101875.75;4998294;28;20199;-61
2022/06/05 04:42:31;;;;;;;7.10;6.40;;;16.70;66.30;;;19.53;50.07;101873.50;5000795;28;20218;-60
2022/06/05 04:47:34;;;;;;;9.43;6.80;;;16.70;66.20;;;19.61;50.07;101875.16;5171868;27;20951;-60
2022/06/05 04:50:01;;;;;;;7.40;6.70;;;16.80;66.10;;;19.64;50.09;101864.84;5129682;27;20296;-60
2022/06/05 04:52:28;;;;;;;7.33;6.60;;;16.90;66.10;;;19.70;49.91;101860.56;5139555;27;20211;-61
2022/06/05 04:54:55;;;;;;;7.37;6.47;;;16.90;66.00;;;19.74;49.60;101864.44;5126115;27;20684;-61
2022/06/05 04:57:22;;;;;;;6.13;5.53;;;16.90;65.70;;;19.79;49.65;101859.31;5112157;28;20204;-60
2022/06/05 04:59:50;;;;;;;6.90;6.30;;;17.00;65.80;;;19.84;49.84;101862.19;5060063;28;20199;-60
2022/06/05 05:02:19;;;;;;;6.57;5.97;;;17.00;65.60;;;19.89;49.59;101854.38;4992188;28;20204;-60
2022/06/05 05:05:31;;;;;;;10.03;6.70;;;17.10;65.50;;;19.90;49.31;101851.47;4979346;28;20308;-58
2022/06/05 05:08:13;;;;;;;7.80;6.07;;;17.20;65.50;;;19.97;49.53;101852.28;4763408;29;20208;-58
2022/06/05 05:10:52;;;;;;;7.17;6.47;;;17.20;64.90;;;20.04;49.12;101846.94;5153430;27;20725;-61
2022/06/05 05:13:18;;;;;;;8.50;6.50;;;17.30;65.00;;;20.10;49.11;101852.28;5150618;27;20230;-61
2022/06/05 05:15:48;;;;;;;6.13;5.60;;;17.30;64.80;;;20.15;48.88;101857.81;5139873;27;20732;-59
2022/06/05 05:18:15;;;;;;;7.37;6.57;;;17.40;64.70;;;20.22;49.09;101839.94;5149864;27;20677;-61
2022/06/05 05:20:42;;;;;;;7.73;6.73;;;17.40;64.60;;;20.30;49.00;101835.38;5136268;27;20278;-61
2022/06/05 05:23:09;;;;;;;6.83;6.20;;;17.50;64.60;;;20.36;48.84;101834.53;5142824;27;20273;-58
2022/06/05 05:25:36;;;;;;;7.10;6.40;;;17.50;64.40;;;20.43;48.64;101832.63;5092862;28;20224;-58
2022/06/05 05:28:06;;;;;;;6.90;6.10;;;17.60;64.30;;;20.48;48.04;101832.81;5065014;28;20657;-60
2022/06/05 05:30:32;;;;;;;7.47;6.77;;;17.60;64.10;;;20.51;47.98;101827.06;5106583;28;20311;-58
2022/06/05 05:32:58;;;;;;;8.47;6.73;;;17.70;63.90;;;20.54;48.20;101826.66;5046119;28;20564;-59
2022/06/05 05:38:02;;;;;;;7.63;6.07;;;17.70;63.70;;;20.61;48.28;101838.13;5170548;27;20865;-59
2022/06/05 05:43:14;;;;;;;6.53;5.57;;;17.90;63.30;;;20.65;47.92;101842.84;5083510;28;20197;-60
2022/06/05 05:45:41;;;;;;;6.67;6.00;;;17.90;63.30;;;20.72;47.67;101845.47;5074283;28;20220;-60
2022/06/05 05:48:09;;;;;;;6.13;5.63;;;18.00;63.30;;;20.79;48.01;101846.25;5078736;28;20204;-58
2022/06/05 05:50:36;;;;;;;6.30;5.70;;;18.00;63.20;;;20.82;48.03;101840.50;5095523;28;20203;-60
2022/06/05 05:53:04;;;;;;;5.87;5.37;;;18.10;63.20;;;20.88;47.89;101842.28;5081528;28;20193;-60
2022/06/05 05:55:31;;;;;;;6.30;5.70;;;18.10;63.10;;;20.96;47.50;101850.06;5003702;28;20230;-60
2022/06/05 05:58:11;;;;;;;15.53;6.63;;;18.20;63.00;;;21.06;47.40;101842.41;4845751;29;20209;-60
2022/06/05 06:03:16;;;;;;;7.63;5.43;;;18.30;62.90;;;21.32;47.36;101841.41;5164150;27;20634;-58
2022/06/05 06:05:44;;;;;;;5.43;5.00;;;18.40;62.50;;;21.43;47.13;101844.19;5137643;27;20219;-59
2022/06/05 06:08:11;;;;;;;6.37;5.77;;;18.50;62.30;;;21.51;46.45;101851.16;5129835;28;20191;-57
2022/06/05 06:10:37;;;;;;;6.10;5.60;;;18.60;61.90;;;21.59;45.76;101858.91;5146935;27;20195;-59
2022/06/05 06:13:04;;;;;;;5.30;4.83;;;18.70;60.70;;;21.68;45.86;101862.16;5126100;27;20192;-56
2022/06/05 06:15:31;;;;;;;7.97;4.70;;;18.80;60.60;;;21.81;46.01;101857.47;5080549;28;20262;-60
2022/06/05 06:17:58;;;;;;;5.73;5.23;;;19.00;60.70;;;21.93;44.95;101858.41;5057775;28;20204;-59
2022/06/05 06:20:25;;;;;;;6.00;5.50;;;19.10;59.90;;;22.02;44.41;101851.72;5063319;28;20201;-59
2022/06/05 06:22:52;;;;;;;5.53;5.07;;;19.20;59.40;;;22.17;44.56;101851.34;5037930;28;20221;-60
2022/06/05 06:25:18;;;;;;;5.67;5.17;;;19.30;59.50;;;22.29;44.21;101846.88;4935593;28;20224;-58
2022/06/05 06:27:57;;;;;;;5.50;5.07;;;19.40;58.90;;;22.46;44.33;101834.50;5171652;27;20388;-60
2022/06/05 06:30:24;;;;;;;4.77;4.33;;;19.60;58.70;;;22.66;43.85;101845.81;5150729;27;20198;-58
2022/06/05 06:32:51;;;;;;;5.07;4.10;;;19.70;58.60;;;22.84;43.26;101840.38;5149660;27;20201;-59
2022/06/05 06:35:18;;;;;;;5.33;4.83;;;19.90;58.10;;;23.00;42.34;101846.19;5140067;27;20310;-59
2022/06/05 06:37:44;;;;;;;4.60;4.30;;;20.00;57.80;;;23.08;41.82;101840.50;5105707;28;20231;-58
2022/06/05 06:40:12;;;;;;;4.57;4.13;;;20.20;56.10;;;23.06;41.47;101834.53;5070392;28;20200;-59
2022/06/05 06:42:39;;;;;;;5.20;4.70;;;20.20;55.20;;;23.10;41.29;101824.94;5084990;28;20185;-59
2022/06/05 06:45:09;;;;;;;5.13;4.40;;;20.40;55.00;;;23.26;41.13;101824.28;5082278;28;20755;-61
2022/06/05 06:47:35;;;;;;;6.07;4.23;;;20.50;54.90;;;23.42;40.70;101823.63;5096172;28;20233;-57
2022/06/05 06:52:41;;;;;;;5.07;4.23;;;20.60;54.20;;;23.56;39.63;101827.72;5169582;27;20637;-59
2022/06/05 06:55:13;;;;;;;4.83;4.30;;;20.90;52.80;;;23.47;39.75;101821.06;5126637;27;20271;-59
2022/06/05 06:57:40;;;;;;;3.93;3.63;;;20.90;52.50;;;23.56;39.95;101815.09;5110486;28;20211;-61
2022/06/05 07:00:08;;;;;;;5.10;4.27;;;21.00;52.80;;;23.73;39.27;101815.22;5136373;27;20197;-58
2022/06/05 07:02:35;;;;;;;4.37;4.07;;;21.10;52.20;;;23.78;39.33;101812.63;5128721;27;20587;-60
2022/06/05 07:05:02;;;;;;;4.30;3.97;;;21.20;52.10;;;23.91;39.40;101812.41;5142476;27;20210;-60
2022/06/05 07:07:28;;;;;;;3.90;3.60;;;21.30;52.00;;;24.07;39.04;101809.00;5116030;27;20198;-63
2022/06/05 07:11:11;;;;;;;3.70;3.40;;;21.40;51.80;;;24.21;38.95;101802.31;5102543;28;20529;-60
2022/06/05 07:16:17;;;;;;;4.43;4.03;;;21.60;51.90;;;24.62;37.94;101797.72;5153612;27;20642;-60
2022/06/05 07:18:44;;;;;;;4.70;4.30;;;21.80;51.30;;;24.72;38.21;101789.81;5111139;28;20278;-57
2022/06/05 07:21:16;;;;;;;4.17;3.77;;;21.90;50.70;;;24.87;38.07;101787.41;5129855;28;20201;-59
2022/06/05 07:23:43;;;;;;;4.53;3.87;;;22.10;50.70;;;25.03;38.17;101788.50;5129143;28;20628;-59
2022/06/05 07:26:14;;;;;;;3.80;3.50;;;22.20;51.00;;;25.15;37.85;101775.75;5091703;28;20244;-59
2022/06/05 07:28:41;;;;;;;3.57;3.27;;;22.30;50.80;;;25.28;37.19;101780.81;5088990;28;20610;-61
2022/06/05 07:31:10;;;;;;;3.80;3.50;;;22.50;50.60;;;25.45;37.68;101755.50;5099832;28;20196;-59
2022/06/05 07:35:08;;;;;;;4.63;3.57;;;22.60;50.30;;;25.54;36.36;101767.50;5082979;28;20250;-60
2022/06/05 07:37:33;;;;;;;3.43;3.13;;;22.80;49.70;;;25.74;36.39;101763.44;4819324;29;20291;-64
2022/06/05 07:40:14;;;;;;;3.70;3.40;;;22.90;49.00;;;25.87;36.51;101771.97;5171892;27;20729;-60
2022/06/05 07:42:43;;;;;;;3.93;3.13;;;23.10;48.80;;;26.01;35.89;101767.00;5142174;27;20278;-57
2022/06/05 07:45:15;;;;;;;3.80;3.50;;;23.20;48.70;;;26.15;35.34;101765.59;5140261;27;20221;-59
2022/06/05 07:47:42;;;;;;;3.43;3.17;;;23.30;48.30;;;26.28;35.37;101765.22;5106441;28;20249;-60
2022/06/05 07:50:10;;;;;;;3.73;3.43;;;23.40;48.00;;;26.41;35.13;101759.41;5085491;28;20223;-60
2022/06/05 07:55:24;;;;;;;4.70;3.40;;;23.60;47.90;;;26.69;34.96;101756.47;5101213;28;20579;-60
2022/06/05 07:57:51;;;;;;;3.40;2.87;;;23.70;47.20;;;26.80;34.75;101752.00;5102047;28;20270;-61
2022/06/05 08:00:31;;;;;;;3.77;2.93;;;23.80;47.20;;;26.88;34.31;101756.13;5171883;27;21129;-59
2022/06/05 08:02:58;;;;;;;3.40;3.10;;;24.00;46.70;;;26.95;33.81;101759.41;5150422;27;20198;-59
2022/06/05 08:05:25;;;;;;;3.73;3.43;;;24.10;46.20;;;27.02;34.03;101755.41;5144750;27;20220;-60
2022/06/05 08:07:52;;;;;;;3.57;2.93;;;24.20;45.90;;;27.15;33.88;101748.75;5142958;27;20513;-57
2022/06/05 08:10:19;;;;;;;2.83;2.60;;;24.30;45.60;;;27.22;33.20;101750.16;5140237;27;20555;-59
2022/06/05 08:12:46;;;;;;;3.43;3.13;;;24.30;45.10;;;27.63;33.29;101745.84;5083355;28;20223;-59
2022/06/05 08:15:14;;;;;;;3.87;3.23;;;24.50;45.50;;;28.37;31.81;101743.69;5054615;28;20696;-59
2022/06/05 08:20:57;;;;;;;3.07;2.70;;;24.70;44.50;;;30.11;29.48;101739.41;5171539;27;20633;-61
2022/06/05 08:23:24;;;;;;;3.70;3.20;;;25.70;42.50;;;30.70;27.99;101748.28;5150209;27;20273;-60
2022/06/05 08:25:52;;;;;;;3.10;2.87;;;26.20;41.10;;;31.36;28.31;101737.63;5140731;27;20301;-60
2022/06/05 08:28:18;;;;;;;3.37;3.07;;;26.70;41.10;;;31.95;26.44;101741.88;5146165;27;20218;-60
2022/06/05 08:30:53;;;;;;;3.23;3.03;;;27.20;38.80;;;32.35;25.82;101745.97;5139069;27;20187;-61
2022/06/05 08:33:20;;;;;;;4.33;3.93;;;27.70;37.50;;;32.48;25.45;101735.13;5144367;27;20214;-60
2022/06/05 08:35:51;;;;;;;4.00;3.27;;;28.00;36.10;;;32.32;25.69;101735.66;5145688;27;20286;-59
2022/06/05 08:41:32;;;;;;;2.90;2.70;;;28.20;36.10;;;33.70;24.98;101723.69;5171347;27;20637;-59
2022/06/05 08:44:10;;;;;;;3.67;2.90;;;29.00;36.30;;;34.46;24.49;101714.59;5067916;28;20215;-61
2022/06/05 08:46:43;;;;;;;3.30;3.00;;;29.50;35.50;;;35.28;23.75;101712.22;5063563;28;20256;-60
2022/06/05 08:49:14;;;;;;;5.40;3.97;;;30.00;35.20;;;35.79;22.72;101700.63;5089997;28;20191;-61
2022/06/05 08:51:56;;;;;;;3.40;3.20;;;30.40;33.80;;;36.19;22.12;101695.03;5111660;28;20196;-61
2022/06/05 08:54:35;;;;;;;3.60;3.40;;;30.80;33.00;;;36.39;21.96;101700.69;4997272;28;20199;-59
2022/06/05 08:57:13;;;;;;;3.00;2.70;;;31.20;31.80;;;36.34;21.99;101689.88;4795112;29;20286;-58
2022/06/05 08:59:39;;;;;;;3.00;2.80;;;31.50;31.40;;;36.21;21.23;101687.28;4745405;29;20238;-61
2022/06/05 09:04:52;;;;;;;3.50;3.15;;;31.60;30.20;;;35.97;21.40;101688.53;5167247;27;20623;-61
2022/06/05 09:07:26;;;;;;;3.50;3.20;;;31.60;29.70;;;35.80;22.03;101672.06;5109422;28;20230;-62
2022/06/05 09:09:59;;;;;;;3.53;3.25;;;31.60;29.90;;;35.69;22.59;101670.78;5118469;28;20655;-60
2022/06/05 09:12:37;;;;;;;3.10;2.90;;;31.60;30.10;;;35.66;21.78;101663.19;5085588;28;20276;-60
2022/06/05 09:15:16;;;;;;;4.00;3.07;;;31.60;30.30;;;35.82;22.04;101664.34;5031005;28;20211;-59
2022/06/05 09:17:53;;;;;;;3.30;3.00;;;31.50;30.20;;;35.69;22.39;101661.75;4972554;28;20204;-59
2022/06/05 09:20:34;;;;;;;3.10;2.90;;;31.50;29.90;;;35.17;21.87;101669.00;4839781;29;20205;-59
2022/06/05 09:26:19;;;;;;;3.60;3.30;;;31.40;29.70;;;34.50;22.49;101666.34;5154077;27;20635;-61
2022/06/05 09:29:11;;;;;;;5.30;3.13;;;30.90;30.10;;;34.37;22.87;101672.72;5111283;28;20596;-59
2022/06/05 09:32:09;;;;;;;3.10;2.90;;;30.80;30.70;;;34.30;23.19;101668.78;5075587;28;20226;-59
2022/06/05 09:34:43;;;;;;;3.50;3.20;;;30.70;30.90;;;34.49;22.97;101656.53;5076847;28;20261;-57
2022/06/05 09:37:35;;;;;;;3.23;3.03;;;30.60;31.00;;;34.63;22.99;101651.81;5028734;28;20268;-61
2022/06/05 09:40:16;;;;;;;3.07;2.87;;;30.60;30.80;;;34.85;22.92;101644.69;4901440;29;20199;-60
2022/06/05 09:46:52;;;;;;;3.87;3.60;;;30.80;30.90;;;35.61;22.12;101633.19;5152912;27;20643;-60
2022/06/05 09:49:30;;;;;;;3.10;2.90;;;31.00;30.50;;;36.05;21.17;101634.03;5088631;28;20593;-60
2022/06/05 09:52:08;;;;;;;7.25;3.33;;;31.20;30.40;;;36.41;21.04;101623.50;5066982;28;20257;-60
2022/06/05 09:54:42;;;;;;;3.03;2.83;;;31.40;30.00;;;36.64;20.90;101624.91;5099407;28;20305;-60
2022/06/05 10:00:31;;;;;;;3.03;2.67;;;31.70;29.40;;;36.51;20.21;101614.97;4849354;29;20566;-60
2022/06/05 10:03:04;;;;;;;3.60;3.17;;;31.90;29.20;;;36.62;20.04;101605.22;4701643;29;20236;-59
2022/06/05 10:05:31;;;;;;;3.35;2.80;;;31.90;28.90;;;36.71;20.65;101600.50;4607104;30;20257;-59
2022/06/05 10:07:56;;;;;;;3.60;2.97;;;32.00;28.90;;;36.80;20.21;101595.78;4596611;31;20639;-58
2022/06/05 10:13:15;;;;;;;3.10;2.90;;;32.10;28.90;;;37.21;19.72;101584.94;5171263;27;20637;-59
2022/06/05 10:15:52;;;;;;;3.28;2.97;;;32.30;28.50;;;37.52;19.59;101583.75;5116929;28;20580;-59
2022/06/05 10:18:31;;;;;;;3.15;2.90;;;32.40;28.50;;;37.74;19.90;101586.19;5066813;28;20197;-59
2022/06/05 10:21:06;;;;;;;3.42;3.10;;;32.70;28.30;;;38.02;19.03;101598.25;5117077;27;20186;-60
2022/06/05 10:23:45;;;;;;;5.07;3.38;;;32.80;27.80;;;38.18;19.01;101590.94;5092479;28;20261;-59
2022/06/05 10:26:31;;;;;;;3.00;2.80;;;33.00;27.50;;;38.35;19.28;101593.56;5085879;28;20228;-58
2022/06/05 10:29:28;;;;;;;3.42;3.22;;;33.20;27.90;;;38.45;19.28;101587.63;5002702;28;20700;-59
2022/06/05 10:31:54;;;;;;;4.00;3.38;;;33.40;27.60;;;38.51;19.24;101582.69;4884909;29;20225;-59
2022/06/05 10:37:18;;;;;;;3.30;3.00;;;33.50;27.40;;;38.31;18.74;101586.31;5167596;27;21166;-61
2022/06/05 10:40:03;;;;;;;3.42;3.13;;;33.50;26.90;;;38.26;19.04;101578.25;5130754;27;20270;-60
2022/06/05 10:42:44;;;;;;;3.17;2.95;;;33.50;27.00;;;38.26;18.97;101581.81;5090815;28;20197;-60
2022/06/05 10:45:35;;;;;;;3.30;2.67;;;33.50;26.70;;;38.20;18.60;101588.69;5052533;28;20216;-60
2022/06/05 10:48:19;;;;;;;4.00;3.70;;;33.50;26.70;;;37.83;19.30;101574.00;4960804;28;20296;-61
2022/06/05 10:50:54;;;;;;;4.32;3.58;;;33.50;26.70;;;37.53;19.22;101557.91;4796583;29;20286;-65
2022/06/05 10:53:32;;;;;;;4.32;4.03;;;33.40;26.60;;;37.29;19.69;101564.03;4801878;29;20225;-58
2022/06/05 10:56:13;;;;;;;4.60;3.00;;;33.30;26.80;;;36.87;19.84;101565.88;4738234;29;20248;-59
2022/06/05 10:58:39;;;;;;;3.30;3.10;;;33.10;26.60;;;36.32;20.30;101556.88;4521593;31;20215;-59
2022/06/05 11:01:51;;;;;;;3.47;3.28;;;32.80;27.00;;;36.15;20.22;101552.25;5171401;27;20403;-58
2022/06/05 11:04:38;;;;;;;3.60;3.30;;;32.60;27.20;;;36.14;20.77;101560.78;5093824;28;20203;-60
2022/06/05 11:07:24;;;;;;;3.53;3.25;;;32.50;27.80;;;35.85;20.98;101564.97;5030230;28;20216;-59
2022/06/05 11:10:02;;;;;;;4.10;3.45;;;32.30;27.40;;;35.57;21.44;101552.75;5050226;28;20189;-61
2022/06/05 11:15:39;;;;;;;3.55;3.33;;;32.00;27.80;;;34.49;22.28;101543.56;4866311;29;20217;-60
2022/06/05 11:18:18;;;;;;;3.20;3.00;;;31.70;28.30;;;34.27;22.85;101544.41;4789038;29;20215;-65
2022/06/05 11:20:44;;;;;;;3.10;2.90;;;31.60;28.80;;;34.17;22.68;101539.19;4697236;30;20240;-60
2022/06/05 11:25:59;;;;;;;3.47;3.17;;;31.40;29.10;;;33.90;23.32;101509.28;5161694;27;20650;-59
2022/06/05 11:28:47;;;;;;;3.57;3.10;;;31.10;29.50;;;33.78;23.60;101501.59;5132750;27;20487;-60
2022/06/05 11:31:28;;;;;;;4.60;3.37;;;30.90;29.70;;;33.72;23.76;101496.59;5132374;27;20187;-58
2022/06/05 11:34:03;;;;;;;3.60;3.30;;;30.80;29.90;;;33.66;23.63;101486.91;5131225;27;20198;-59
2022/06/05 11:36:43;;;;;;;4.23;3.73;;;30.80;30.10;;;33.54;23.94;101489.41;5115615;27;20215;-60
2022/06/05 11:39:30;;;;;;;3.37;3.17;;;30.70;30.60;;;33.45;24.12;101494.75;5071138;28;20211;-59
2022/06/05 11:43:30;;;;;;;3.30;3.10;;;30.70;30.50;;;33.38;23.73;101500.63;4922216;28;20212;-60
2022/06/05 11:48:42;;;;;;;3.50;3.20;;;30.60;30.70;;;33.42;24.15;101477.03;5172261;27;20641;-57
2022/06/05 11:51:21;;;;;;;3.30;3.10;;;30.60;30.50;;;33.48;23.72;101474.19;5132663;27;20542;-58
2022/06/05 11:54:05;;;;;;;4.27;3.47;;;30.70;30.50;;;33.52;24.05;101475.22;5107993;28;20198;-57
2022/06/05 11:57:07;;;;;;;5.07;3.20;;;30.70;30.50;;;33.51;23.95;101473.59;5058015;28;20217;-56
2022/06/05 11:59:44;;;;;;;3.40;3.20;;;30.70;30.40;;;33.56;23.93;101470.75;4893642;29;20660;-59
2022/06/05 12:02:45;;;;;;;3.90;3.43;;;30.70;30.50;;;33.52;23.91;101465.06;4821971;29;20203;-61
2022/06/05 12:08:08;;;;;;;3.43;3.13;;;30.70;30.40;;;33.13;24.73;101454.81;5171811;27;20626;-59